Time;durP1;ratioP1;P1;durP2;ratioP2;P2;SDS_P1;SDS_P2;PMS_P1;PMS_P2;Temp;Humidity;BMP_temperature;BMP_pressure;BME280_temperature;BME280_humidity;BME280_pressure;Samples;Min_cycle;Max_cycle;Signal;HPM_P1;HPM_P2
2022/03/17 00:00:14;;;;;;;12.25;10.88;;;15.40;58.20;;;;;;5058649;28;20427;-71
2022/03/17 00:02:41;;;;;;;14.43;12.38;;;15.40;58.30;;;;;;5066426;28;20427;-71
2022/03/17 00:05:09;;;;;;;15.00;12.00;;;15.40;58.30;;;;;;5078830;28;20045;-72
2022/03/17 00:07:36;;;;;;;14.38;11.77;;;15.30;58.30;;;;;;5075961;28;20048;-71
2022/03/17 00:10:07;;;;;;;14.77;12.00;;;15.40;58.40;;;;;;5060715;28;20049;-71
2022/03/17 00:12:33;;;;;;;15.27;12.15;;;15.30;58.40;;;;;;5079006;28;20352;-71
2022/03/17 00:14:59;;;;;;;13.80;11.82;;;15.30;58.40;;;;;;5078389;28;20044;-71
2022/03/17 00:17:26;;;;;;;13.68;11.98;;;15.30;58.40;;;;;;5079055;28;20378;-70
2022/03/17 00:19:53;;;;;;;14.48;11.77;;;15.30;58.40;;;;;;5078554;28;20071;-71
2022/03/17 00:22:19;;;;;;;14.48;11.50;;;15.30;58.50;;;;;;5078535;28;20046;-70
2022/03/17 00:24:46;;;;;;;14.52;11.75;;;15.30;58.60;;;;;;5078943;28;20048;-71
2022/03/17 00:27:12;;;;;;;15.88;11.95;;;15.30;58.60;;;;;;5078052;28;20052;-71
2022/03/17 00:29:39;;;;;;;16.17;11.48;;;15.30;58.60;;;;;;5077998;28;20059;-71
2022/03/17 00:32:06;;;;;;;14.15;11.30;;;15.30;58.60;;;;;;5075611;28;20049;-71
2022/03/17 00:34:33;;;;;;;14.77;12.10;;;15.30;58.70;;;;;;5058697;28;20460;-70
2022/03/17 00:36:59;;;;;;;14.07;11.77;;;15.30;58.70;;;;;;5058091;28;20045;-71
2022/03/17 00:39:25;;;;;;;14.93;12.38;;;15.30;58.70;;;;;;5058175;28;20387;-70
2022/03/17 00:41:51;;;;;;;14.27;12.40;;;15.30;58.70;;;;;;5057945;28;20067;-70
2022/03/17 00:44:17;;;;;;;14.55;12.18;;;15.30;58.80;;;;;;5057634;28;20419;-72
2022/03/17 00:46:42;;;;;;;15.18;11.82;;;15.30;58.70;;;;;;5058101;28;20099;-71
2022/03/17 00:49:08;;;;;;;13.38;11.32;;;15.30;59.40;;;;;;5057960;28;20447;-71
2022/03/17 00:51:34;;;;;;;14.85;12.07;;;15.30;58.80;;;;;;5057633;28;20102;-71
2022/03/17 00:54:00;;;;;;;15.40;12.57;;;15.30;58.90;;;;;;5057595;28;20056;-71
2022/03/17 00:56:26;;;;;;;14.57;12.40;;;15.30;58.90;;;;;;5067348;28;20356;-71
2022/03/17 00:58:52;;;;;;;15.32;12.52;;;15.30;58.90;;;;;;5077740;28;20447;-71
2022/03/17 01:01:18;;;;;;;18.55;12.35;;;15.30;58.90;;;;;;5077659;28;20053;-72
2022/03/17 01:03:46;;;;;;;15.27;12.30;;;15.30;58.90;;;;;;5073452;28;20451;-71
2022/03/17 01:06:12;;;;;;;16.45;12.75;;;15.30;59.00;;;;;;5058009;28;20053;-72
2022/03/17 01:08:38;;;;;;;16.48;12.85;;;15.20;58.90;;;;;;5057586;28;20491;-71
2022/03/17 01:11:05;;;;;;;15.85;12.95;;;15.30;58.90;;;;;;5057307;28;20041;-71
2022/03/17 01:13:31;;;;;;;15.57;13.25;;;15.20;58.90;;;;;;5057900;28;20111;-70
2022/03/17 01:15:56;;;;;;;18.17;12.38;;;15.20;58.90;;;;;;5057415;28;20049;-71
2022/03/17 01:18:22;;;;;;;14.77;12.85;;;15.20;59.00;;;;;;5058104;28;20106;-71
2022/03/17 01:20:51;;;;;;;16.52;12.93;;;15.20;59.10;;;;;;5057442;28;20064;-71
2022/03/17 01:23:17;;;;;;;15.68;13.38;;;15.20;59.10;;;;;;5060892;28;20049;-71
2022/03/17 01:25:43;;;;;;;15.45;13.13;;;15.20;59.20;;;;;;5077597;28;20352;-71
2022/03/17 01:28:09;;;;;;;15.45;13.52;;;15.20;59.20;;;;;;5077081;28;20059;-71
2022/03/17 01:30:36;;;;;;;16.25;12.95;;;15.20;59.30;;;;;;5077316;28;20066;-71
2022/03/17 01:33:02;;;;;;;16.70;13.32;;;15.20;59.30;;;;;;5077190;28;20210;-71
2022/03/17 01:35:28;;;;;;;15.65;13.00;;;15.20;59.40;;;;;;5077237;28;20032;-71
2022/03/17 01:37:54;;;;;;;15.40;12.70;;;15.20;59.40;;;;;;5077063;28;20051;-71
2022/03/17 01:40:20;;;;;;;18.38;13.55;;;15.20;59.50;;;;;;5059150;28;20052;-70
2022/03/17 01:42:46;;;;;;;15.70;13.77;;;15.20;59.50;;;;;;5076679;28;20135;-70
2022/03/17 01:45:12;;;;;;;15.80;12.85;;;15.20;59.50;;;;;;5077393;28;20041;-71
2022/03/17 01:47:38;;;;;;;15.50;13.00;;;15.20;59.60;;;;;;5076850;28;20052;-72
2022/03/17 01:50:09;;;;;;;16.83;14.13;;;15.20;59.60;;;;;;5076705;28;20392;-71
2022/03/17 01:52:34;;;;;;;15.05;13.45;;;15.20;59.60;;;;;;5059106;28;20052;-71
2022/03/17 01:55:01;;;;;;;14.75;13.15;;;15.20;59.70;;;;;;5057833;28;20059;-71
2022/03/17 01:57:27;;;;;;;15.93;13.30;;;15.20;60.40;;;;;;5056602;28;20120;-71
2022/03/17 01:59:53;;;;;;;15.95;13.55;;;15.20;59.80;;;;;;5056485;28;20495;-71
2022/03/17 02:02:19;;;;;;;17.08;13.60;;;15.20;59.90;;;;;;5061560;28;20040;-72
2022/03/17 02:04:47;;;;;;;17.27;14.07;;;15.20;59.90;;;;;;5058849;28;20055;-71
2022/03/17 02:07:14;;;;;;;17.38;14.70;;;15.20;59.90;;;;;;5075981;28;20079;-71
2022/03/17 02:09:41;;;;;;;16.15;13.48;;;15.20;59.90;;;;;;5058654;28;20052;-70
2022/03/17 02:15:03;;;;;;;17.33;14.27;;;15.20;60.00;;;;;;5076296;28;20048;-71
2022/03/17 02:17:30;;;;;;;17.45;14.38;;;15.20;60.20;;;;;;5076436;28;20359;-71
2022/03/17 02:20:01;;;;;;;18.92;15.50;;;15.20;60.20;;;;;;5076093;28;20099;-71
2022/03/17 02:22:28;;;;;;;17.40;14.45;;;15.20;60.30;;;;;;5076024;28;20040;-72
2022/03/17 02:27:46;;;;;;;17.95;15.32;;;15.10;60.30;;;;;;5075894;28;20048;-72
2022/03/17 02:30:15;;;;;;;16.33;14.52;;;15.10;60.40;;;;;;5076465;28;20076;-70
2022/03/17 02:32:42;;;;;;;19.95;15.55;;;15.10;60.40;;;;;;5068849;28;20044;-70
2022/03/17 02:35:11;;;;;;;17.25;14.85;;;15.10;60.50;;;;;;5055956;28;20053;-71
2022/03/17 02:37:36;;;;;;;18.65;14.88;;;15.10;60.60;;;;;;5055978;28;20068;-70
2022/03/17 02:40:08;;;;;;;17.65;14.55;;;15.10;60.60;;;;;;5021772;28;20479;-71
2022/03/17 02:42:35;;;;;;;16.70;14.23;;;15.10;60.70;;;;;;5056402;28;20123;-71
2022/03/17 02:45:01;;;;;;;17.33;15.45;;;15.10;60.80;;;;;;5056535;28;20053;-71
2022/03/17 02:47:28;;;;;;;17.58;15.50;;;15.10;60.80;;;;;;5055923;28;20049;-71
2022/03/17 02:49:57;;;;;;;19.45;15.88;;;15.10;60.80;;;;;;5055833;28;20048;-71
2022/03/17 02:52:27;;;;;;;18.17;15.45;;;15.10;60.80;;;;;;5055626;28;20059;-71
2022/03/17 02:54:53;;;;;;;19.00;14.93;;;15.10;60.90;;;;;;5055429;28;20052;-72
2022/03/17 02:57:20;;;;;;;17.95;15.57;;;15.10;60.90;;;;;;5055138;28;20102;-71
2022/03/17 02:59:48;;;;;;;18.52;15.77;;;15.10;61.00;;;;;;5055200;28;20448;-70
2022/03/17 03:02:14;;;;;;;21.98;16.77;;;15.10;61.00;;;;;;5058138;28;20060;-71
2022/03/17 03:04:41;;;;;;;17.40;15.50;;;15.00;61.00;;;;;;5075121;28;20047;-71
2022/03/17 03:07:07;;;;;;;18.50;15.73;;;15.00;61.00;;;;;;5075876;28;20041;-71
2022/03/17 03:09:33;;;;;;;19.95;17.02;;;15.00;61.10;;;;;;5075264;28;20356;-71
2022/03/17 03:11:59;;;;;;;19.77;16.13;;;15.00;61.20;;;;;;5057878;28;20037;-71
2022/03/17 03:14:26;;;;;;;19.52;16.92;;;15.00;61.30;;;;;;5075037;28;20055;-71
2022/03/17 03:16:51;;;;;;;19.17;16.80;;;15.00;61.40;;;;;;5074577;28;20590;-71
2022/03/17 03:19:17;;;;;;;18.40;16.08;;;15.00;61.40;;;;;;5074770;28;20075;-72
2022/03/17 03:21:46;;;;;;;19.48;16.38;;;15.00;61.50;;;;;;5075107;28;20040;-71
2022/03/17 03:24:13;;;;;;;19.55;16.48;;;15.00;61.60;;;;;;5074778;28;20047;-71
2022/03/17 03:26:42;;;;;;;19.48;16.33;;;15.00;61.60;;;;;;5075381;28;20135;-72
2022/03/17 03:29:17;;;;;;;18.67;16.67;;;15.00;61.70;;;;;;5057227;28;20088;-71
2022/03/17 03:31:43;;;;;;;19.52;17.13;;;15.00;61.80;;;;;;5074946;28;20044;-71
2022/03/17 03:34:08;;;;;;;20.23;16.27;;;15.00;61.90;;;;;;5056364;28;20040;-72
2022/03/17 03:39:19;;;;;;;19.38;17.27;;;15.00;62.10;;;;;;5054883;28;20448;-70
2022/03/17 03:41:44;;;;;;;23.55;18.38;;;15.00;62.20;;;;;;5037202;28;20053;-71
2022/03/17 03:44:12;;;;;;;20.80;18.08;;;15.00;62.30;;;;;;5055015;28;20124;-71
2022/03/17 03:46:38;;;;;;;21.35;18.25;;;15.00;62.40;;;;;;5054782;28;20110;-71
2022/03/17 03:49:04;;;;;;;24.17;17.98;;;15.00;62.50;;;;;;5054592;28;20041;-71
2022/03/17 03:51:29;;;;;;;23.92;18.63;;;14.90;62.60;;;;;;5055246;28;20060;-71
2022/03/17 03:56:40;;;;;;;22.52;17.73;;;14.90;62.80;;;;;;5054634;28;20457;-71
2022/03/17 03:59:08;;;;;;;20.58;17.95;;;14.90;62.90;;;;;;5054914;28;20056;-71
2022/03/17 04:01:34;;;;;;;21.25;17.30;;;14.90;63.00;;;;;;5054784;28;20048;-71
2022/03/17 04:04:01;;;;;;;22.17;18.15;;;14.90;63.10;;;;;;5053929;28;20138;-70
2022/03/17 04:06:27;;;;;;;21.35;16.20;;;14.90;63.30;;;;;;5054349;28;20495;-72
2022/03/17 04:08:53;;;;;;;21.60;16.98;;;14.90;63.50;;;;;;5054725;28;20072;-71
2022/03/17 04:11:19;;;;;;;18.27;14.95;;;14.90;63.70;;;;;;5054452;28;20443;-70
2022/03/17 04:13:44;;;;;;;15.95;13.40;;;14.90;63.80;;;;;;5054742;28;20056;-71
2022/03/17 04:16:10;;;;;;;15.80;12.48;;;14.90;63.80;;;;;;5054316;28;20041;-71
2022/03/17 04:18:36;;;;;;;12.13;10.70;;;14.80;63.80;;;;;;5054294;28;20045;-71
2022/03/17 04:21:01;;;;;;;12.02;9.88;;;14.80;63.80;;;;;;5054171;28;20044;-72
2022/03/17 04:23:27;;;;;;;12.20;8.77;;;14.70;63.80;;;;;;5054200;28;20063;-70
2022/03/17 04:25:53;;;;;;;10.73;8.45;;;14.70;63.80;;;;;;5054558;28;20059;-70
2022/03/17 04:28:19;;;;;;;9.27;8.15;;;14.70;63.80;;;;;;5054321;28;20048;-70
2022/03/17 04:30:45;;;;;;;8.60;7.38;;;14.70;63.80;;;;;;5055188;28;20095;-71
2022/03/17 04:33:11;;;;;;;7.57;6.47;;;14.70;63.80;;;;;;5069712;28;20436;-70
2022/03/17 04:35:37;;;;;;;8.30;6.93;;;14.70;63.80;;;;;;5077944;28;20066;-72
2022/03/17 04:38:03;;;;;;;8.88;6.40;;;14.60;63.80;;;;;;5060339;28;20127;-72
2022/03/17 04:40:28;;;;;;;6.95;5.72;;;14.60;63.70;;;;;;5077688;28;20060;-72
2022/03/17 04:42:54;;;;;;;7.60;5.30;;;14.60;63.80;;;;;;5077970;28;20052;-71
2022/03/17 04:45:20;;;;;;;5.65;5.03;;;14.60;63.80;;;;;;5077912;28;20082;-72
2022/03/17 04:47:46;;;;;;;6.38;4.57;;;14.60;63.70;;;;;;5076659;28;20059;-70
2022/03/17 04:50:12;;;;;;;5.85;3.97;;;14.50;63.60;;;;;;5078450;28;20048;-71
2022/03/17 04:55:22;;;;;;;7.05;4.22;;;14.50;63.70;;;;;;5077796;28;20080;-70
2022/03/17 04:57:47;;;;;;;8.10;4.60;;;14.50;63.70;;;;;;5077721;28;20083;-70
2022/03/17 05:00:14;;;;;;;5.85;4.40;;;14.40;63.60;;;;;;5077788;28;20048;-71
2022/03/17 05:02:39;;;;;;;9.07;5.30;;;14.40;63.60;;;;;;5076788;28;20108;-71
2022/03/17 05:05:06;;;;;;;8.60;4.75;;;14.40;63.60;;;;;;5077436;28;20363;-70
2022/03/17 05:07:31;;;;;;;7.68;4.22;;;14.40;63.60;;;;;;5077563;28;20048;-70
2022/03/17 05:09:57;;;;;;;7.88;4.70;;;14.40;63.50;;;;;;5077509;28;20119;-70
2022/03/17 05:12:23;;;;;;;8.30;4.53;;;14.40;63.60;;;;;;5077050;28;20057;-71
2022/03/17 05:14:48;;;;;;;9.32;4.68;;;14.30;63.50;;;;;;5075926;28;20041;-71
2022/03/17 05:17:14;;;;;;;8.23;3.75;;;14.30;63.50;;;;;;5077224;28;20509;-71
2022/03/17 05:19:40;;;;;;;7.82;4.28;;;14.40;63.70;;;;;;5077313;28;20374;-73
2022/03/17 05:22:05;;;;;;;8.98;4.13;;;14.40;63.20;;;;;;5077488;28;20080;-78
2022/03/17 05:24:32;;;;;;;9.35;3.60;;;14.40;62.60;;;;;;5058929;28;20047;-78
2022/03/17 05:27:01;;;;;;;7.53;3.20;;;14.40;62.20;;;;;;5076148;28;20052;-75
2022/03/17 05:29:26;;;;;;;10.32;3.00;;;14.40;61.70;;;;;;5058522;28;20120;-78
2022/03/17 05:31:52;;;;;;;10.73;3.10;;;14.40;61.50;;;;;;5071519;28;20153;-76
2022/03/17 05:34:18;;;;;;;10.40;2.90;;;14.40;62.10;;;;;;5076285;28;20080;-75
2022/03/17 05:36:44;;;;;;;7.53;2.42;;;14.40;61.30;;;;;;5059770;28;20040;-75
2022/03/17 05:39:10;;;;;;;9.68;2.55;;;14.40;61.30;;;;;;5077159;28;20048;-72
2022/03/17 05:41:36;;;;;;;8.55;2.42;;;14.30;61.40;;;;;;5076811;28;20537;-75
2022/03/17 05:44:02;;;;;;;12.05;2.53;;;14.40;61.70;;;;;;5075969;28;20124;-74
2022/03/17 05:46:27;;;;;;;9.50;2.58;;;14.40;63.60;;;;;;5059437;28;20060;-76
2022/03/17 05:48:54;;;;;;;9.43;2.10;;;14.40;64.10;;;;;;5077087;28;20479;-75
2022/03/17 05:51:20;;;;;;;8.02;1.83;;;14.50;63.50;;;;;;5076635;28;20048;-74
2022/03/17 05:53:45;;;;;;;9.05;2.47;;;14.70;62.80;;;;;;5075420;28;20041;-73
2022/03/17 05:56:11;;;;;;;9.98;2.45;;;14.50;62.70;;;;;;5076441;28;20037;-71
2022/03/17 05:58:37;;;;;;;11.27;1.90;;;14.80;62.80;;;;;;5076743;28;20179;-75
2022/03/17 06:01:03;;;;;;;10.98;1.95;;;15.20;62.70;;;;;;5075974;28;20040;-72
2022/03/17 06:03:28;;;;;;;7.03;1.30;;;15.40;62.50;;;;;;5075464;28;20048;-78
2022/03/17 06:05:54;;;;;;;8.00;1.60;;;15.60;62.10;;;;;;5055665;28;20059;-73
2022/03/17 06:08:20;;;;;;;8.95;1.83;;;15.70;62.10;;;;;;5056758;28;20168;-77
2022/03/17 06:10:45;;;;;;;8.35;1.10;;;15.80;62.60;;;;;;5056588;28;20055;-76
2022/03/17 06:13:11;;;;;;;5.55;1.48;;;16.00;61.90;;;;;;5056961;28;20095;-75
2022/03/17 06:15:37;;;;;;;6.68;1.85;;;16.00;61.80;;;;;;5039014;28;20049;-79
2022/03/17 06:18:04;;;;;;;7.25;1.45;;;16.00;61.60;;;;;;5056036;28;20088;-75
2022/03/17 06:20:34;;;;;;;8.88;1.60;;;16.00;61.80;;;;;;5056302;28;20084;-74
2022/03/17 06:23:01;;;;;;;7.82;1.48;;;16.00;62.40;;;;;;5056267;28;20048;-78
2022/03/17 06:25:30;;;;;;;12.48;1.75;;;16.10;62.40;;;;;;5056649;28;20049;-75
2022/03/17 06:27:56;;;;;;;7.72;1.67;;;16.10;61.60;;;;;;5052594;28;20137;-74
2022/03/17 06:30:34;;;;;;;12.13;2.85;;;16.10;62.70;;;;;;5055633;28;20059;-75
2022/03/17 06:33:01;;;;;;;9.32;1.48;;;16.20;63.10;;;;;;5055490;28;20056;-75
2022/03/17 06:35:28;;;;;;;11.30;1.95;;;16.20;62.90;;;;;;5055794;28;20428;-77
2022/03/17 06:37:55;;;;;;;11.90;1.85;;;16.30;63.20;;;;;;5055845;28;20052;-75
2022/03/17 06:40:22;;;;;;;9.60;1.65;;;16.40;63.40;;;;;;5055748;28;20480;-75
2022/03/17 06:42:49;;;;;;;11.60;2.03;;;16.40;63.10;;;;;;5038589;28;20164;-77
2022/03/17 06:45:15;;;;;;;13.88;1.48;;;16.40;62.80;;;;;;5035699;28;20041;-78
2022/03/17 06:47:42;;;;;;;5.50;1.15;;;16.50;63.10;;;;;;5035785;28;20548;-75
2022/03/17 06:50:09;;;;;;;6.72;1.10;;;16.60;63.20;;;;;;5035909;28;20053;-74
2022/03/17 06:52:35;;;;;;;8.77;1.17;;;16.70;63.10;;;;;;5001983;28;20049;-73
2022/03/17 06:55:01;;;;;;;9.40;1.75;;;16.80;62.70;;;;;;5035627;28;20053;-75
2022/03/17 06:57:27;;;;;;;6.78;1.30;;;16.90;62.30;;;;;;5042777;28;20149;-77
2022/03/17 06:59:53;;;;;;;7.38;1.75;;;16.90;62.10;;;;;;5035615;28;20041;-76
2022/03/17 07:02:19;;;;;;;10.10;1.25;;;17.00;62.40;;;;;;5035272;28;20060;-77
2022/03/17 07:04:45;;;;;;;8.52;1.70;;;17.00;62.30;;;;;;5044054;28;20388;-77
2022/03/17 07:07:11;;;;;;;8.82;1.35;;;17.00;62.00;;;;;;5061206;28;20056;-76
2022/03/17 07:09:38;;;;;;;13.73;1.33;;;17.00;62.00;;;;;;5037435;28;20128;-79
2022/03/17 07:12:05;;;;;;;10.32;1.70;;;16.90;61.90;;;;;;5048799;28;20041;-75
2022/03/17 07:14:31;;;;;;;4.72;1.38;;;16.90;61.90;;;;;;5015231;28;20042;-76
2022/03/17 07:16:57;;;;;;;7.07;1.45;;;16.90;61.90;;;;;;5035437;28;20147;-75
2022/03/17 07:19:23;;;;;;;10.65;1.88;;;16.80;61.70;;;;;;5036304;28;20445;-75
2022/03/17 07:21:49;;;;;;;8.80;1.65;;;16.80;61.80;;;;;;5035128;28;20085;-75
2022/03/17 07:24:15;;;;;;;7.30;1.30;;;16.70;61.70;;;;;;5024664;28;20092;-75
2022/03/17 07:26:41;;;;;;;5.07;1.35;;;16.70;61.60;;;;;;5057726;28;20048;-76
2022/03/17 07:29:07;;;;;;;7.65;1.38;;;16.70;61.60;;;;;;5066684;28;20128;-74
2022/03/17 07:31:34;;;;;;;6.18;1.02;;;16.60;61.60;;;;;;5055320;28;20053;-74
2022/03/17 07:34:00;;;;;;;5.32;1.08;;;16.60;61.50;;;;;;5055784;28;20115;-73
2022/03/17 07:36:27;;;;;;;4.10;1.30;;;16.50;61.50;;;;;;5047576;28;20036;-75
2022/03/17 07:38:57;;;;;;;6.38;1.35;;;16.50;61.50;;;;;;5048022;28;20041;-75
2022/03/17 07:41:23;;;;;;;7.22;2.08;;;16.40;61.30;;;;;;5069011;28;20127;-75
2022/03/17 07:43:49;;;;;;;5.55;1.40;;;16.40;61.50;;;;;;5093744;28;20051;-76
2022/03/17 07:46:16;;;;;;;6.43;1.38;;;16.40;61.60;;;;;;5074926;28;20121;-75
2022/03/17 07:48:41;;;;;;;6.43;1.58;;;16.40;61.70;;;;;;5075274;28;20055;-74
2022/03/17 07:51:11;;;;;;;6.38;1.27;;;16.40;61.70;;;;;;5057161;28;20052;-76
2022/03/17 07:53:38;;;;;;;7.93;1.20;;;16.40;61.60;;;;;;5074521;28;20419;-76
2022/03/17 07:56:04;;;;;;;7.22;1.02;;;16.40;61.60;;;;;;5076260;28;20045;-76
2022/03/17 07:58:32;;;;;;;5.65;1.00;;;16.40;61.50;;;;;;5094788;28;20044;-76
2022/03/17 08:01:01;;;;;;;4.72;1.30;;;16.40;61.50;;;;;;5094972;28;20054;-74
2022/03/17 08:03:27;;;;;;;7.68;1.27;;;16.40;61.50;;;;;;5077485;28;20049;-74
2022/03/17 08:05:53;;;;;;;5.72;1.00;;;16.40;61.50;;;;;;5058100;28;20087;-73
2022/03/17 08:08:19;;;;;;;6.00;1.17;;;16.40;61.50;;;;;;5068639;28;20068;-74
2022/03/17 08:10:46;;;;;;;7.68;1.45;;;16.30;61.20;;;;;;5069145;28;20055;-74
2022/03/17 08:13:12;;;;;;;7.35;1.50;;;16.30;60.40;;;;;;5060960;28;20414;-75
2022/03/17 08:15:40;;;;;;;7.60;1.70;;;16.30;60.00;;;;;;5078528;28;20095;-74
2022/03/17 08:18:07;;;;;;;8.02;1.58;;;16.30;59.80;;;;;;5060926;28;20063;-74
2022/03/17 08:20:36;;;;;;;7.70;1.38;;;16.20;59.90;;;;;;5078188;28;20106;-74
2022/03/17 08:23:02;;;;;;;5.45;1.20;;;16.20;59.90;;;;;;5078424;28;20048;-74
2022/03/17 08:25:27;;;;;;;8.40;1.20;;;16.20;60.00;;;;;;5077932;28;20364;-73
2022/03/17 08:27:55;;;;;;;5.63;1.27;;;16.10;59.90;;;;;;5078454;28;20047;-76
2022/03/17 08:30:21;;;;;;;5.20;1.40;;;16.10;59.80;;;;;;5078425;28;20364;-74
2022/03/17 08:32:48;;;;;;;6.47;1.58;;;16.10;59.80;;;;;;5060259;28;20163;-73
2022/03/17 08:35:14;;;;;;;3.67;0.95;;;16.00;59.80;;;;;;5061384;28;20356;-73
2022/03/17 08:37:41;;;;;;;7.63;1.13;;;16.00;59.50;;;;;;5077175;28;20044;-74
2022/03/17 08:40:08;;;;;;;5.93;1.10;;;16.00;59.50;;;;;;5040620;28;20052;-72
2022/03/17 08:42:34;;;;;;;5.88;1.40;;;15.90;59.70;;;;;;5040382;28;20057;-75
2022/03/17 08:44:59;;;;;;;4.22;1.10;;;16.00;59.80;;;;;;5057985;28;20124;-75
2022/03/17 08:50:09;;;;;;;6.05;1.38;;;15.90;59.60;;;;;;5058004;28;20048;-74
2022/03/17 08:52:35;;;;;;;6.22;1.15;;;15.90;59.50;;;;;;5057740;28;20044;-74
2022/03/17 08:55:02;;;;;;;6.90;1.80;;;15.90;59.80;;;;;;5057728;28;20056;-74
2022/03/17 08:57:28;;;;;;;8.05;1.67;;;15.80;59.80;;;;;;5057690;28;20124;-72
2022/03/17 08:59:53;;;;;;;4.95;0.82;;;15.80;59.70;;;;;;5058366;28;20053;-74
2022/03/17 09:02:19;;;;;;;6.80;1.42;;;15.80;59.60;;;;;;5057589;28;20045;-73
2022/03/17 09:04:45;;;;;;;5.85;1.48;;;15.80;60.00;;;;;;5050438;28;20051;-74
2022/03/17 09:07:12;;;;;;;6.13;1.42;;;15.80;60.10;;;;;;5040571;28;20041;-73
2022/03/17 09:09:41;;;;;;;6.32;1.10;;;15.80;60.20;;;;;;5040338;28;20052;-74
2022/03/17 09:12:08;;;;;;;10.07;2.03;;;15.70;60.30;;;;;;5037592;28;20044;-75
2022/03/17 09:14:40;;;;;;;6.57;1.55;;;15.80;60.40;;;;;;5057539;28;20093;-74
2022/03/17 09:17:06;;;;;;;8.27;1.50;;;15.70;60.40;;;;;;5056071;28;20076;-74
2022/03/17 09:19:32;;;;;;;12.55;1.70;;;15.80;60.40;;;;;;5057368;28;20081;-73
2022/03/17 09:21:58;;;;;;;6.97;1.65;;;15.70;60.30;;;;;;5056489;28;20441;-74
2022/03/17 09:24:26;;;;;;;9.63;1.33;;;15.70;60.30;;;;;;5056255;28;20045;-74
2022/03/17 09:26:52;;;;;;;6.53;1.40;;;15.70;60.40;;;;;;5039838;28;20053;-76
2022/03/17 09:29:17;;;;;;;6.85;1.90;;;15.70;60.30;;;;;;5057732;28;20360;-73
2022/03/17 09:31:43;;;;;;;5.82;1.50;;;15.70;60.30;;;;;;5056896;28;20045;-74
2022/03/17 09:34:09;;;;;;;6.90;1.20;;;15.70;60.40;;;;;;5039783;28;20363;-75
2022/03/17 09:36:35;;;;;;;6.00;1.60;;;15.70;60.50;;;;;;5039425;28;20123;-73
2022/03/17 09:41:45;;;;;;;6.72;1.45;;;15.70;60.40;;;;;;5056643;28;20057;-75
2022/03/17 09:44:11;;;;;;;5.55;1.30;;;15.70;60.40;;;;;;5057016;28;20072;-75
2022/03/17 09:46:41;;;;;;;6.97;1.30;;;15.70;60.50;;;;;;5039550;28;20106;-75
2022/03/17 09:49:07;;;;;;;15.43;2.88;;;15.80;60.50;;;;;;5039482;28;20234;-74
2022/03/17 09:51:34;;;;;;;6.13;1.35;;;15.70;60.50;;;;;;5057024;28;20423;-73
2022/03/17 09:54:00;;;;;;;7.20;1.90;;;15.80;60.50;;;;;;5043639;28;20110;-73
2022/03/17 09:56:27;;;;;;;6.63;1.75;;;15.80;60.50;;;;;;5065638;28;20048;-75
2022/03/17 09:58:54;;;;;;;12.65;1.80;;;15.80;60.40;;;;;;5070572;28;20363;-74
2022/03/17 10:01:22;;;;;;;12.60;2.10;;;15.80;60.60;;;;;;5078482;28;20066;-76
2022/03/17 10:03:48;;;;;;;10.63;1.70;;;15.80;60.70;;;;;;5058340;28;20515;-74
2022/03/17 10:06:17;;;;;;;18.10;1.98;;;15.80;60.90;;;;;;5075579;28;20055;-74
2022/03/17 10:08:48;;;;;;;9.95;1.85;;;15.90;61.40;;;;;;5075933;28;20040;-74
2022/03/17 10:11:15;;;;;;;9.68;1.98;;;15.90;62.20;;;;;;5058099;28;20045;-73
2022/03/17 10:13:46;;;;;;;7.88;1.55;;;15.90;61.80;;;;;;5075842;28;20333;-73
2022/03/17 10:16:17;;;;;;;7.47;1.40;;;16.00;62.10;;;;;;5076162;28;20048;-78
2022/03/17 10:18:45;;;;;;;7.03;1.30;;;16.00;61.20;;;;;;5058855;28;20036;-74
2022/03/17 10:21:24;;;;;;;10.07;2.05;;;16.00;59.70;;;;;;5054778;28;20041;-74
2022/03/17 10:23:59;;;;;;;9.93;1.67;;;16.10;59.20;;;;;;5055996;28;20053;-74
2022/03/17 10:26:43;;;;;;;10.68;1.52;;;16.20;59.00;;;;;;5055878;28;20044;-74
2022/03/17 10:29:17;;;;;;;4.65;1.30;;;16.20;59.70;;;;;;5055925;28;20049;-74
2022/03/17 10:31:52;;;;;;;9.45;1.98;;;16.30;59.70;;;;;;5038558;28;20049;-74
2022/03/17 10:34:19;;;;;;;6.85;1.48;;;16.30;59.60;;;;;;5056059;28;20445;-74
2022/03/17 10:36:45;;;;;;;10.43;2.00;;;16.30;59.60;;;;;;5063559;28;20040;-79
2022/03/17 10:39:12;;;;;;;6.28;1.70;;;16.30;60.00;;;;;;5075355;28;20107;-73
2022/03/17 10:41:45;;;;;;;7.40;1.65;;;16.30;60.60;;;;;;5068467;28;20075;-74
2022/03/17 10:44:16;;;;;;;;;;;16.30;60.20;;;;;;5038687;28;20101;-74
2022/03/17 10:47:01;;;;;;;6.43;1.40;;;16.30;59.20;;;;;;5054416;28;19927;-74
2022/03/17 10:49:28;;;;;;;8.55;1.48;;;16.30;60.10;;;;;;5019113;28;20143;-73
2022/03/17 10:51:55;;;;;;;6.68;1.40;;;16.30;60.50;;;;;;5055016;28;20131;-75
2022/03/17 10:54:22;;;;;;;5.38;1.40;;;16.30;60.80;;;;;;5055216;28;20045;-75
2022/03/17 10:57:02;;;;;;;5.70;1.52;;;16.30;60.90;;;;;;5055488;28;20044;-75
2022/03/17 10:59:43;;;;;;;6.57;1.42;;;16.30;60.30;;;;;;5037922;28;20040;-75
2022/03/17 11:02:21;;;;;;;5.40;1.20;;;16.20;58.50;;;;;;5055576;28;20411;-73
2022/03/17 11:04:47;;;;;;;8.32;1.92;;;16.10;57.60;;;;;;5055320;28;20045;-72
2022/03/17 11:07:15;;;;;;;6.93;1.45;;;16.10;57.90;;;;;;5054859;28;20052;-76
2022/03/17 11:09:45;;;;;;;6.05;1.67;;;16.00;57.80;;;;;;5037933;28;20052;-75
2022/03/17 11:12:20;;;;;;;8.50;1.85;;;16.00;57.90;;;;;;5038482;28;20072;-73
2022/03/17 11:14:55;;;;;;;11.18;2.47;;;15.90;58.10;;;;;;5055369;28;20044;-74
2022/03/17 11:17:24;;;;;;;9.68;1.70;;;16.00;58.50;;;;;;5055341;28;20052;-73
2022/03/17 11:19:51;;;;;;;9.63;2.15;;;16.00;58.50;;;;;;5037652;28;20068;-74
2022/03/17 11:22:22;;;;;;;7.53;1.67;;;15.90;58.40;;;;;;5032971;28;20057;-75
2022/03/17 11:25:20;;;;;;;7.15;2.05;;;16.00;58.50;;;;;;5074722;28;20048;-74
2022/03/17 11:27:50;;;;;;;5.43;1.55;;;16.00;58.20;;;;;;5064301;28;20120;-74
2022/03/17 11:30:17;;;;;;;6.60;2.03;;;16.00;58.40;;;;;;5055135;28;20053;-74
2022/03/17 11:32:58;;;;;;;7.15;1.90;;;16.00;58.70;;;;;;5054725;28;20049;-76
2022/03/17 11:35:32;;;;;;;8.60;1.90;;;16.00;58.40;;;;;;5054646;28;20045;-77
2022/03/17 11:38:17;;;;;;;6.65;1.77;;;16.00;58.70;;;;;;5054802;28;20049;-74
2022/03/17 11:41:14;;;;;;;7.38;1.75;;;16.00;58.20;;;;;;5071454;28;20081;-76
2022/03/17 11:43:46;;;;;;;6.25;1.88;;;16.00;58.20;;;;;;5077025;28;20134;-73
2022/03/17 11:46:17;;;;;;;6.03;1.13;;;16.00;58.10;;;;;;5094868;28;20048;-75
2022/03/17 11:48:45;;;;;;;5.68;1.58;;;16.00;58.70;;;;;;5077317;28;20359;-73
2022/03/17 11:51:13;;;;;;;6.28;1.55;;;16.00;59.00;;;;;;5095585;28;20048;-77
2022/03/17 11:53:47;;;;;;;6.18;1.52;;;16.00;59.20;;;;;;5094827;28;20051;-76
2022/03/17 11:56:31;;;;;;;5.75;1.42;;;16.00;59.10;;;;;;5077067;28;20058;-75
2022/03/17 11:58:56;;;;;;;12.15;2.17;;;16.00;59.00;;;;;;5094795;28;20062;-74
2022/03/17 12:01:29;;;;;;;7.60;1.58;;;16.00;58.90;;;;;;5077222;28;20048;-75
2022/03/17 12:04:03;;;;;;;7.65;1.40;;;16.00;58.80;;;;;;5076806;28;20109;-74
2022/03/17 12:06:31;;;;;;;5.50;1.77;;;16.00;58.70;;;;;;5095121;28;20044;-74
2022/03/17 12:09:11;;;;;;;4.30;1.30;;;16.00;58.70;;;;;;5077126;28;20083;-73
2022/03/17 12:11:47;;;;;;;6.32;1.48;;;16.00;58.40;;;;;;5077305;28;20143;-76
2022/03/17 12:14:22;;;;;;;3.95;1.08;;;16.00;58.50;;;;;;5095147;28;20119;-74
2022/03/17 12:16:51;;;;;;;5.45;1.30;;;15.90;58.50;;;;;;5080813;28;20048;-75
2022/03/17 12:19:39;;;;;;;7.00;0.93;;;16.00;58.60;;;;;;5074505;28;20055;-74
2022/03/17 12:22:39;;;;;;;5.05;1.15;;;15.90;58.40;;;;;;5057057;28;20139;-75
2022/03/17 12:25:20;;;;;;;6.20;1.60;;;15.90;58.30;;;;;;5051481;28;20092;-74
2022/03/17 12:27:53;;;;;;;8.32;1.90;;;15.90;58.40;;;;;;5074882;28;20048;-75
2022/03/17 12:30:20;;;;;;;6.63;1.35;;;15.90;58.40;;;;;;5074747;28;20053;-76
2022/03/17 12:32:48;;;;;;;4.13;1.45;;;15.90;58.40;;;;;;5069865;28;20036;-75
2022/03/17 12:35:14;;;;;;;4.57;1.60;;;15.90;58.40;;;;;;5071174;28;20066;-76
2022/03/17 12:37:42;;;;;;;4.90;1.60;;;15.90;58.50;;;;;;5076614;28;20367;-76
2022/03/17 12:40:19;;;;;;;5.78;1.05;;;15.90;58.40;;;;;;5071654;28;20459;-75
2022/03/17 12:42:53;;;;;;;7.15;1.38;;;15.90;58.40;;;;;;5074507;28;20075;-74
2022/03/17 12:45:24;;;;;;;5.10;1.10;;;15.90;58.40;;;;;;5040253;28;20115;-74
2022/03/17 12:47:58;;;;;;;5.15;1.25;;;15.90;58.40;;;;;;5074045;28;20044;-75
2022/03/17 12:50:28;;;;;;;6.63;1.45;;;15.90;58.40;;;;;;5079832;28;20055;-75
2022/03/17 12:52:54;;;;;;;6.07;1.52;;;15.90;58.40;;;;;;5078325;28;20044;-74
2022/03/17 12:55:21;;;;;;;5.40;1.65;;;15.80;58.30;;;;;;5080514;28;20335;-76
2022/03/17 12:57:47;;;;;;;3.92;1.13;;;15.90;58.40;;;;;;5098177;28;20048;-76
2022/03/17 13:00:17;;;;;;;6.97;1.27;;;15.80;58.30;;;;;;5080567;28;20405;-77
2022/03/17 13:02:47;;;;;;;6.05;1.40;;;15.80;58.30;;;;;;5098338;28;20040;-74